createdAt,value
2023-05-16T00:01:53.323Z,46.10
2023-05-16T00:04:20.641Z,46.65
2023-05-16T00:06:47.665Z,46.94
2023-05-16T00:09:14.574Z,47.37
2023-05-16T00:11:41.560Z,47.24
2023-05-16T00:14:08.604Z,47.67
2023-05-16T00:16:37.502Z,47.84
2023-05-16T00:19:05.064Z,48.02
2023-05-16T00:21:32.153Z,47.70
2023-05-16T00:23:59.105Z,47.74
2023-05-16T00:26:26.554Z,48.28
2023-05-16T00:28:53.579Z,48.97
2023-05-16T00:31:20.882Z,48.88
2023-05-16T00:33:48.213Z,48.96
2023-05-16T00:36:15.270Z,50.07
2023-05-16T00:38:42.267Z,49.70
2023-05-16T00:41:09.258Z,48.80
2023-05-16T00:43:36.885Z,48.46
2023-05-16T00:46:03.894Z,49.03
2023-05-16T00:48:30.962Z,49.00
2023-05-16T00:50:58.063Z,49.21
2023-05-16T00:53:25.117Z,49.29
2023-05-16T00:55:52.120Z,49.20
2023-05-16T00:58:19.157Z,49.66
2023-05-16T01:00:48.807Z,49.80
2023-05-16T01:03:16.180Z,50.09
2023-05-16T01:05:43.460Z,50.00
2023-05-16T01:08:10.448Z,49.30
2023-05-16T01:10:40.692Z,49.75
2023-05-16T01:13:24.995Z,50.28
2023-05-16T01:16:01.629Z,50.67
2023-05-16T01:18:28.851Z,50.71
2023-05-16T01:20:59.897Z,50.54
2023-05-16T01:23:31.265Z,50.67
2023-05-16T01:26:06.858Z,50.49
2023-05-16T01:28:33.933Z,50.36
2023-05-16T01:31:01.288Z,50.37
2023-05-16T01:33:29.448Z,50.08
2023-05-16T01:36:00.041Z,50.07
2023-05-16T01:38:27.573Z,49.93
2023-05-16T01:40:57.750Z,50.25
2023-05-16T01:43:35.169Z,51.07
2023-05-16T01:46:09.562Z,51.53
2023-05-16T01:48:40.465Z,51.59
2023-05-16T01:51:07.502Z,51.82
2023-05-16T01:53:39.379Z,52.66
2023-05-16T01:56:09.224Z,53.44
2023-05-16T01:58:36.973Z,54.56
2023-05-16T02:01:04.757Z,54.56
2023-05-16T02:03:32.411Z,54.53
2023-05-16T02:05:59.648Z,54.95
2023-05-16T02:08:27.719Z,54.95
2023-05-16T02:10:54.853Z,54.92
2023-05-16T02:13:21.933Z,54.97
2023-05-16T02:15:49.175Z,54.89
2023-05-16T02:18:17.024Z,54.89
2023-05-16T02:20:44.125Z,55.52
2023-05-16T02:23:11.215Z,55.24
2023-05-16T02:25:38.353Z,54.88
2023-05-16T02:28:05.737Z,54.78
2023-05-16T02:30:33.233Z,54.66
2023-05-16T02:33:00.383Z,54.68
2023-05-16T02:35:27.835Z,53.93
2023-05-16T02:37:56.107Z,53.41
2023-05-16T02:40:24.978Z,52.78
2023-05-16T02:42:52.216Z,51.52
2023-05-16T02:45:19.288Z,50.63
2023-05-16T02:47:46.519Z,49.85
2023-05-16T02:50:13.931Z,49.06
2023-05-16T02:52:41.310Z,48.30
2023-05-16T02:55:21.645Z,47.62
2023-05-16T02:57:51.269Z,46.61
2023-05-16T03:00:18.978Z,45.96
2023-05-16T03:02:47.383Z,45.28
2023-05-16T03:05:14.584Z,44.66
2023-05-16T03:07:41.681Z,44.36
2023-05-16T03:10:09.164Z,43.76
2023-05-16T03:12:36.326Z,43.32
2023-05-16T03:15:04.405Z,42.74
2023-05-16T03:17:31.976Z,42.00
2023-05-16T03:19:59.128Z,41.17
2023-05-16T03:22:26.253Z,40.35
2023-05-16T03:24:53.355Z,40.16
2023-05-16T03:27:20.610Z,39.74
2023-05-16T03:29:50.098Z,38.96
2023-05-16T03:32:17.290Z,38.18
2023-05-16T03:34:44.460Z,37.97
2023-05-16T03:37:11.806Z,37.20
2023-05-16T03:39:38.897Z,36.63
2023-05-16T03:42:06.087Z,36.36
2023-05-16T03:44:33.829Z,36.25
2023-05-16T03:47:00.896Z,35.95
2023-05-16T03:49:30.947Z,35.28
2023-05-16T03:51:58.263Z,34.83
2023-05-16T03:54:25.314Z,34.47
2023-05-16T03:56:52.420Z,33.71
2023-05-16T03:59:19.544Z,32.85
2023-05-16T04:01:46.738Z,32.41
2023-05-16T04:04:14.462Z,32.40
2023-05-16T04:06:41.542Z,31.49
2023-05-16T04:09:08.692Z,31.04
2023-05-16T04:11:36.633Z,30.33
2023-05-16T04:14:03.763Z,29.76
2023-05-16T04:16:30.938Z,29.09
2023-05-16T04:18:58.109Z,28.77
2023-05-16T04:21:25.226Z,28.68
2023-05-16T04:23:52.327Z,28.02
2023-05-16T04:26:22.144Z,27.36
2023-05-16T04:28:49.244Z,27.67
2023-05-16T04:31:16.795Z,27.21
2023-05-16T04:33:44.031Z,25.97
2023-05-16T04:36:11.247Z,25.90
2023-05-16T04:38:38.308Z,25.35
2023-05-16T04:41:05.376Z,25.74
2023-05-16T04:43:32.598Z,25.41
2023-05-16T04:45:59.751Z,24.37
2023-05-16T04:48:26.942Z,23.23
2023-05-16T04:50:54.107Z,23.95
2023-05-16T04:53:21.772Z,23.32
2023-05-16T04:55:48.886Z,23.57
2023-05-16T04:58:16.185Z,23.49
2023-05-16T05:00:43.390Z,23.00
2023-05-16T05:03:10.621Z,23.19
2023-05-16T05:05:37.964Z,21.60
2023-05-16T05:08:05.289Z,20.82
2023-05-16T05:10:32.468Z,21.40
2023-05-16T05:12:59.526Z,21.43
2023-05-16T05:15:27.222Z,20.45
2023-05-16T05:17:54.618Z,21.54
2023-05-16T05:20:21.979Z,20.75
2023-05-16T05:22:49.201Z,20.48
2023-05-16T05:25:17.235Z,20.89
2023-05-16T05:27:44.370Z,20.23
2023-05-16T05:30:11.734Z,20.23
2023-05-16T05:32:38.917Z,20.47
2023-05-16T05:35:06.784Z,19.77
2023-05-16T05:37:33.992Z,19.39
2023-05-16T05:40:01.822Z,19.97
2023-05-16T05:42:29.234Z,20.19
2023-05-16T05:44:56.683Z,20.21
2023-05-16T05:47:24.267Z,19.39
2023-05-16T05:49:51.399Z,19.43
2023-05-16T05:52:18.480Z,18.83
2023-05-16T05:54:45.615Z,19.16
2023-05-16T05:57:12.828Z,18.63
2023-05-16T05:59:40.006Z,18.47
2023-05-16T06:02:07.974Z,18.02
2023-05-16T06:04:35.336Z,18.58
2023-05-16T06:07:02.490Z,18.18
2023-05-16T06:09:29.617Z,18.48
2023-05-16T06:11:56.859Z,18.77
2023-05-16T06:14:23.907Z,18.79
2023-05-16T06:16:51.084Z,18.76
2023-05-16T06:19:19.392Z,18.30
2023-05-16T06:21:47.472Z,17.21
2023-05-16T06:24:15.295Z,17.47
2023-05-16T06:26:42.892Z,17.39
2023-05-16T06:29:10.039Z,16.93
2023-05-16T06:31:37.165Z,17.18
2023-05-16T06:34:04.446Z,16.94
2023-05-16T06:36:31.638Z,17.05
2023-05-16T06:38:58.902Z,16.78
2023-05-16T06:41:26.887Z,17.03
2023-05-16T06:43:54.062Z,16.92
2023-05-16T06:46:21.359Z,17.08
2023-05-16T06:48:48.988Z,16.84
2023-05-16T06:51:16.538Z,17.25
2023-05-16T06:53:43.921Z,17.23
2023-05-16T06:56:11.161Z,18.23
2023-05-16T06:58:40.518Z,17.98
2023-05-16T07:01:07.756Z,17.63
2023-05-16T07:03:35.197Z,17.31
2023-05-16T07:06:02.581Z,17.04
2023-05-16T07:08:29.845Z,17.66
2023-05-16T07:10:57.065Z,17.64
2023-05-16T07:13:24.251Z,17.95
2023-05-16T07:15:51.391Z,17.73
2023-05-16T07:18:18.819Z,17.62
2023-05-16T07:20:46.342Z,17.82
2023-05-16T07:23:13.581Z,17.88
2023-05-16T07:25:40.776Z,17.72
2023-05-16T07:28:07.860Z,17.23
2023-05-16T07:30:35.074Z,17.34
2023-05-16T07:33:02.345Z,16.98
2023-05-16T07:35:29.755Z,16.75
2023-05-16T07:37:57.082Z,16.69
2023-05-16T07:40:28.545Z,16.77
2023-05-16T07:42:56.038Z,16.65
2023-05-16T07:45:23.132Z,16.59
2023-05-16T07:47:50.291Z,16.64
2023-05-16T07:50:17.377Z,16.27
2023-05-16T07:52:44.386Z,16.54
2023-05-16T07:55:11.577Z,16.42
2023-05-16T07:57:38.592Z,16.29
2023-05-16T08:00:06.074Z,16.19
2023-05-16T08:02:39.181Z,16.16
2023-05-16T08:05:06.893Z,16.28
2023-05-16T08:07:34.146Z,15.93
2023-05-16T08:10:01.214Z,15.97
2023-05-16T08:12:28.258Z,15.75
2023-05-16T08:14:57.407Z,15.76
2023-05-16T08:17:24.584Z,16.05
2023-05-16T08:19:51.686Z,16.28
2023-05-16T08:22:18.910Z,15.90
2023-05-16T08:24:46.234Z,15.68
2023-05-16T08:27:13.673Z,15.43
2023-05-16T08:29:40.913Z,15.33
2023-05-16T08:32:08.905Z,15.82
2023-05-16T08:34:36.964Z,15.98
2023-05-16T08:37:03.963Z,15.72
2023-05-16T08:39:31.060Z,15.13
2023-05-16T08:41:59.176Z,15.33
2023-05-16T08:44:27.415Z,15.71
2023-05-16T08:46:55.373Z,15.37
2023-05-16T08:49:22.596Z,15.05
2023-05-16T08:51:52.144Z,15.37
2023-05-16T08:54:19.358Z,15.13
2023-05-16T08:56:46.699Z,14.36
2023-05-16T08:59:13.904Z,15.09
2023-05-16T09:01:41.598Z,15.00
2023-05-16T09:04:09.701Z,14.78
2023-05-16T09:06:37.408Z,14.55
2023-05-16T09:09:07.970Z,14.74
2023-05-16T09:11:36.936Z,14.52
2023-05-16T09:14:05.898Z,14.69
2023-05-16T09:16:32.974Z,14.93
2023-05-16T09:19:00.757Z,15.12
2023-05-16T09:21:29.071Z,14.88
2023-05-16T09:23:56.512Z,14.73
2023-05-16T09:26:23.736Z,14.65
2023-05-16T09:28:53.712Z,14.23
2023-05-16T09:31:22.249Z,14.54
2023-05-16T09:33:51.001Z,14.29
2023-05-16T09:36:18.220Z,14.29
2023-05-16T09:38:45.865Z,14.52
2023-05-16T09:41:13.128Z,14.55
2023-05-16T09:43:42.004Z,14.39
2023-05-16T09:46:09.585Z,14.95
2023-05-16T09:48:36.815Z,14.80
2023-05-16T09:51:06.564Z,14.95
2023-05-16T09:53:34.246Z,14.87
2023-05-16T09:56:02.528Z,14.38
2023-05-16T09:58:33.062Z,14.30
2023-05-16T10:01:00.231Z,14.65
2023-05-16T10:03:27.428Z,14.60
2023-05-16T10:05:54.999Z,14.50
2023-05-16T10:08:22.772Z,15.06
2023-05-16T10:10:53.770Z,15.39
2023-05-16T10:13:22.296Z,15.47
2023-05-16T10:15:49.697Z,15.23
2023-05-16T10:18:18.624Z,15.42
2023-05-16T10:20:49.427Z,15.67
2023-05-16T10:23:17.375Z,15.98
2023-05-16T10:25:44.843Z,16.38
2023-05-16T10:28:12.647Z,16.10
2023-05-16T10:30:44.465Z,16.74
2023-05-16T10:33:12.560Z,17.19
2023-05-16T10:35:40.037Z,16.83
2023-05-16T10:38:08.282Z,16.71
2023-05-16T10:40:36.190Z,17.20
2023-05-16T10:43:04.265Z,17.36
2023-05-16T10:45:32.046Z,17.74
2023-05-16T10:48:00.233Z,18.06
2023-05-16T10:50:44.039Z,18.38
2023-05-16T10:53:31.761Z,18.41
2023-05-16T10:55:59.024Z,18.84
2023-05-16T10:58:36.441Z,19.14
2023-05-16T11:01:15.900Z,19.23
2023-05-16T11:04:04.674Z,19.42
2023-05-16T11:06:35.457Z,20.06
2023-05-16T11:09:05.958Z,20.04
2023-05-16T11:11:52.110Z,20.42
2023-05-16T11:14:23.551Z,20.43
2023-05-16T11:16:55.655Z,20.52
2023-05-16T11:19:31.322Z,20.50
2023-05-16T11:22:08.411Z,21.09
2023-05-16T11:24:36.459Z,21.69
2023-05-16T11:27:07.316Z,21.79
2023-05-16T11:29:35.242Z,21.49
2023-05-16T11:32:03.239Z,21.63
2023-05-16T11:34:32.072Z,22.12
2023-05-16T11:37:00.551Z,22.28
2023-05-16T11:39:28.027Z,22.13
2023-05-16T11:41:57.585Z,22.19
2023-05-16T11:44:24.717Z,22.66
2023-05-16T11:46:54.783Z,22.26
2023-05-16T11:49:21.973Z,22.72
2023-05-16T11:51:49.986Z,23.38
2023-05-16T11:54:17.248Z,23.20
2023-05-16T11:56:44.425Z,23.53
2023-05-16T11:59:11.649Z,23.92
2023-05-16T12:01:39.273Z,22.99
2023-05-16T12:04:10.942Z,22.95
2023-05-16T12:06:43.474Z,22.19
2023-05-16T12:09:17.562Z,21.64
2023-05-16T12:11:46.155Z,21.21
2023-05-16T12:14:13.643Z,21.93
2023-05-16T12:16:42.634Z,21.37
2023-05-16T12:19:09.913Z,21.39
2023-05-16T12:21:38.198Z,21.43
2023-05-16T12:24:05.586Z,22.05
2023-05-16T12:26:33.863Z,23.17
2023-05-16T12:29:03.626Z,23.25
2023-05-16T12:31:32.539Z,23.42
2023-05-16T12:34:00.054Z,23.54
2023-05-16T12:36:27.557Z,22.75
2023-05-16T12:38:57.792Z,22.62
2023-05-16T12:41:24.879Z,21.90
2023-05-16T12:43:52.083Z,22.35
2023-05-16T12:46:20.333Z,23.12
2023-05-16T12:48:48.598Z,22.70
2023-05-16T12:51:19.430Z,21.67
2023-05-16T12:54:01.279Z,21.26
2023-05-16T12:56:39.181Z,21.30
2023-05-16T12:59:08.764Z,21.24
2023-05-16T13:01:36.316Z,22.50
2023-05-16T13:04:05.152Z,22.81
2023-05-16T13:06:44.942Z,23.24
2023-05-16T13:09:19.547Z,23.77
2023-05-16T13:11:47.101Z,23.53
2023-05-16T13:14:14.273Z,23.79
2023-05-16T13:16:41.653Z,23.46
2023-05-16T13:19:09.657Z,22.96
2023-05-16T13:21:36.980Z,22.52
2023-05-16T13:24:04.325Z,22.72
2023-05-16T13:26:31.477Z,22.93
2023-05-16T13:28:58.609Z,23.06
2023-05-16T13:31:25.817Z,23.38
2023-05-16T13:33:53.322Z,23.01
2023-05-16T13:36:20.575Z,22.88
2023-05-16T13:38:48.522Z,23.09
2023-05-16T13:41:15.923Z,23.37
2023-05-16T13:43:43.059Z,23.37
2023-05-16T13:46:10.220Z,23.12
2023-05-16T13:48:37.337Z,23.59
2023-05-16T13:51:04.460Z,23.21
2023-05-16T13:53:31.612Z,23.49
2023-05-16T13:55:58.810Z,23.16
2023-05-16T13:58:27.411Z,23.18
2023-05-16T14:00:54.570Z,23.57
2023-05-16T14:03:23.579Z,23.43
2023-05-16T14:05:52.100Z,23.70
2023-05-16T14:08:19.240Z,23.75
2023-05-16T14:10:46.348Z,23.80
2023-05-16T14:13:13.436Z,23.94
2023-05-16T14:15:40.847Z,23.66
2023-05-16T14:18:08.482Z,23.80
2023-05-16T14:20:36.031Z,24.31
2023-05-16T14:23:03.234Z,24.06
2023-05-16T14:25:30.592Z,24.38
2023-05-16T14:27:58.220Z,24.22
2023-05-16T14:30:25.562Z,24.80
2023-05-16T14:32:52.971Z,24.86
2023-05-16T14:35:20.260Z,25.17
2023-05-16T14:37:48.337Z,24.84
2023-05-16T14:40:15.950Z,24.78
2023-05-16T14:42:43.346Z,24.80
2023-05-16T14:45:11.087Z,25.01
2023-05-16T14:47:38.567Z,25.07
2023-05-16T14:50:07.426Z,25.05
2023-05-16T14:52:34.543Z,25.31
2023-05-16T14:55:01.696Z,25.47
2023-05-16T14:57:28.922Z,25.72
2023-05-16T14:59:56.041Z,26.15
2023-05-16T15:02:23.186Z,25.66
2023-05-16T15:04:50.511Z,25.78
2023-05-16T15:07:17.669Z,25.90
2023-05-16T15:09:44.853Z,26.16
2023-05-16T15:12:12.017Z,26.21
2023-05-16T15:14:39.179Z,26.31
2023-05-16T15:17:08.758Z,26.59
2023-05-16T15:19:36.327Z,26.39
2023-05-16T15:22:03.509Z,26.46
2023-05-16T15:24:30.737Z,26.83
2023-05-16T15:26:58.274Z,27.09
2023-05-16T15:29:26.432Z,27.12
2023-05-16T15:31:53.604Z,27.14
2023-05-16T15:34:20.993Z,27.50
2023-05-16T15:36:48.294Z,27.58
2023-05-16T15:39:16.379Z,27.76
2023-05-16T15:41:56.864Z,27.96
2023-05-16T15:44:30.965Z,27.69
2023-05-16T15:46:58.109Z,27.79
2023-05-16T15:49:25.293Z,28.49
2023-05-16T15:51:52.906Z,28.04
2023-05-16T15:54:20.122Z,28.19
2023-05-16T15:56:47.287Z,28.44
2023-05-16T15:59:14.591Z,28.19
2023-05-16T16:01:41.791Z,28.40
2023-05-16T16:04:09.151Z,28.41
2023-05-16T16:06:36.521Z,28.45
2023-05-16T16:09:04.371Z,28.52
2023-05-16T16:11:31.543Z,28.40
2023-05-16T16:13:58.720Z,28.75
2023-05-16T16:16:26.271Z,29.22
2023-05-16T16:18:53.836Z,28.85
2023-05-16T16:21:21.082Z,29.00
2023-05-16T16:23:48.154Z,28.83
2023-05-16T16:26:15.685Z,29.12
2023-05-16T16:28:43.133Z,29.57
2023-05-16T16:31:11.220Z,29.68
2023-05-16T16:33:38.396Z,30.31
2023-05-16T16:36:06.113Z,30.56
2023-05-16T16:38:33.269Z,30.50
2023-05-16T16:41:00.705Z,30.69
2023-05-16T16:43:27.987Z,30.90
2023-05-16T16:45:57.681Z,30.80
2023-05-16T16:48:25.203Z,30.61
2023-05-16T16:50:52.679Z,30.90
2023-05-16T16:53:19.806Z,30.51
2023-05-16T16:55:47.139Z,31.07
2023-05-16T16:58:14.265Z,31.51
2023-05-16T17:00:41.576Z,31.77
2023-05-16T17:03:09.955Z,31.64
2023-05-16T17:05:37.200Z,31.95
2023-05-16T17:08:04.782Z,31.70
2023-05-16T17:10:44.279Z,32.25
2023-05-16T17:13:14.408Z,32.17
2023-05-16T17:15:44.250Z,32.36
2023-05-16T17:18:11.476Z,32.81
2023-05-16T17:20:38.737Z,32.09
2023-05-16T17:23:05.863Z,32.48
2023-05-16T17:25:33.043Z,32.51
2023-05-16T17:28:00.217Z,32.90
2023-05-16T17:30:27.654Z,33.40
2023-05-16T17:32:55.179Z,33.70
2023-05-16T17:35:22.587Z,34.12
2023-05-16T17:37:50.828Z,34.00
2023-05-16T17:40:18.165Z,34.03
2023-05-16T17:42:45.675Z,34.21
2023-05-16T17:45:13.244Z,34.62
2023-05-16T17:47:40.478Z,34.46
2023-05-16T17:50:09.928Z,34.10
2023-05-16T17:52:38.277Z,34.08
2023-05-16T17:55:06.032Z,34.35
2023-05-16T17:57:34.501Z,34.69
2023-05-16T18:00:02.036Z,34.56
2023-05-16T18:02:32.644Z,33.74
2023-05-16T18:05:00.054Z,34.11
2023-05-16T18:07:27.462Z,34.67
2023-05-16T18:09:54.694Z,33.71
2023-05-16T18:12:22.313Z,33.71
2023-05-16T18:14:49.616Z,33.17
2023-05-16T18:17:16.749Z,32.92
2023-05-16T18:19:45.568Z,32.90
2023-05-16T18:22:15.650Z,32.96
2023-05-16T18:51:17.244Z,34.25
2023-05-16T18:58:16.086Z,34.35
2023-05-16T19:05:15.118Z,34.33
2023-05-16T19:08:59.286Z,34.22
2023-05-16T19:44:45.377Z,34.54
2023-05-16T19:51:08.160Z,34.48
2023-05-16T19:53:36.993Z,34.37
2023-05-16T19:56:12.373Z,34.41
2023-05-16T19:58:39.857Z,33.84
2023-05-16T20:01:09.908Z,33.03
2023-05-16T20:03:37.455Z,33.04
2023-05-16T20:06:08.109Z,32.99
2023-05-16T20:08:36.178Z,33.29
2023-05-16T20:11:03.912Z,33.24
2023-05-16T20:13:32.494Z,33.23
2023-05-16T20:16:07.427Z,33.49
2023-05-16T20:18:34.815Z,32.87
2023-05-16T20:21:02.465Z,33.81
2023-05-16T20:23:32.088Z,33.93
2023-05-16T20:26:03.167Z,33.88
2023-05-16T20:28:31.067Z,34.07
2023-05-16T20:30:58.569Z,33.17
2023-05-16T20:33:26.085Z,33.04
2023-05-16T20:35:53.448Z,32.91
2023-05-16T20:38:20.650Z,32.80
2023-05-16T20:40:47.904Z,32.71
2023-05-16T20:43:15.197Z,32.99
2023-05-16T20:45:42.664Z,33.91
2023-05-16T20:48:09.882Z,34.55
2023-05-16T20:50:39.222Z,34.70
2023-05-16T20:53:07.355Z,34.53
2023-05-16T20:55:34.643Z,34.70
2023-05-16T21:01:27.178Z,34.87
2023-05-16T21:08:10.168Z,35.66
2023-05-16T21:17:41.138Z,36.14
2023-05-16T21:20:08.892Z,36.30
2023-05-16T21:22:37.195Z,36.66
2023-05-16T21:25:04.902Z,36.61
2023-05-16T21:27:33.357Z,36.72
2023-05-16T21:30:00.749Z,36.72
2023-05-16T21:32:35.334Z,36.70
2023-05-16T21:35:04.521Z,36.79
2023-05-16T21:37:31.813Z,37.04
2023-05-16T21:39:59.023Z,37.64
2023-05-16T21:42:26.211Z,37.05
2023-05-16T21:44:53.403Z,37.22
2023-05-16T21:47:21.173Z,37.29
2023-05-16T21:49:48.444Z,36.73
2023-05-16T21:52:15.636Z,36.56
2023-05-16T21:54:43.283Z,36.44
2023-05-16T21:57:11.367Z,36.93
2023-05-16T21:59:38.439Z,37.26
2023-05-16T22:02:05.565Z,36.97
2023-05-16T22:04:32.870Z,37.30
2023-05-16T22:07:00.141Z,36.92
2023-05-16T22:09:27.452Z,37.05
2023-05-16T22:11:54.645Z,36.82
2023-05-16T22:14:21.824Z,37.15
2023-05-16T22:16:49.167Z,37.00
2023-05-16T22:19:16.532Z,37.14
2023-05-16T22:21:43.737Z,37.33
2023-05-16T22:24:12.135Z,37.05
2023-05-16T22:26:39.539Z,37.30
2023-05-16T22:29:06.833Z,37.28
2023-05-16T22:31:34.227Z,37.19
2023-05-16T22:34:02.173Z,36.99
2023-05-16T22:36:29.483Z,36.98
2023-05-16T22:38:56.723Z,36.74
2023-05-16T22:41:24.024Z,37.02
2023-05-16T22:43:51.078Z,36.65
2023-05-16T22:46:18.353Z,36.68
2023-05-16T22:48:45.591Z,36.65
2023-05-16T22:51:12.819Z,36.47
2023-05-16T22:53:40.780Z,36.60
2023-05-16T22:56:11.033Z,36.58
2023-05-16T22:58:38.387Z,36.71
2023-05-16T23:01:05.860Z,36.49
2023-05-16T23:03:34.571Z,36.59
2023-05-16T23:06:02.272Z,36.56
2023-05-16T23:08:29.647Z,36.31
2023-05-16T23:10:58.399Z,36.27
2023-05-16T23:13:25.581Z,35.56
2023-05-16T23:15:52.754Z,35.21
2023-05-16T23:18:20.135Z,35.15
2023-05-16T23:20:47.436Z,35.13
2023-05-16T23:23:14.930Z,35.11
2023-05-16T23:25:42.322Z,35.05
2023-05-16T23:28:10.534Z,34.83
2023-05-16T23:30:38.144Z,34.91
2023-05-16T23:33:05.449Z,34.89
2023-05-16T23:35:32.817Z,34.88
2023-05-16T23:38:02.959Z,34.85
2023-05-16T23:40:30.069Z,35.16
2023-05-16T23:42:57.221Z,34.77
2023-05-16T23:45:24.356Z,34.97
2023-05-16T23:47:51.638Z,35.68
2023-05-16T23:50:21.526Z,35.34
2023-05-16T23:52:48.855Z,34.92
2023-05-16T23:55:16.762Z,34.75
2023-05-16T23:57:43.977Z,34.43
